sensor_id;sensor_type;location;lat;lon;timestamp;pressure;altitude;pressure_sealevel;temperature;humidity
43125;BME280;49182;50.788;7.318;2023-04-07T00:02:03;100698.88;;;8.13;96.19
43125;BME280;49182;50.788;7.318;2023-04-07T00:04:29;100693.63;;;8.13;96.21
43125;BME280;49182;50.788;7.318;2023-04-07T00:06:58;100696.16;;;8.26;95.74
43125;BME280;49182;50.788;7.318;2023-04-07T00:09:24;100691.47;;;8.18;95.92
43125;BME280;49182;50.788;7.318;2023-04-07T00:11:51;100653.06;;;8.04;95.47
43125;BME280;49182;50.788;7.318;2023-04-07T00:14:18;100687.16;;;8.17;96.36
43125;BME280;49182;50.788;7.318;2023-04-07T00:16:45;100689.69;;;8.19;96.66
43125;BME280;49182;50.788;7.318;2023-04-07T00:19:12;100657.97;;;7.98;96.97
43125;BME280;49182;50.788;7.318;2023-04-07T00:21:38;100653.91;;;7.94;97.08
43125;BME280;49182;50.788;7.318;2023-04-07T00:24:06;100689.22;;;8.25;96.74
43125;BME280;49182;50.788;7.318;2023-04-07T00:26:33;100659.75;;;8.08;96.64
43125;BME280;49182;50.788;7.318;2023-04-07T00:29:01;100574.59;;;7.54;96.75
43125;BME280;49182;50.788;7.318;2023-04-07T00:31:27;100643.97;;;7.97;97.28
43125;BME280;49182;50.788;7.318;2023-04-07T00:33:54;100681.31;;;8.13;97.55
43125;BME280;49182;50.788;7.318;2023-04-07T00:36:21;100669.94;;;8.13;97.83
43125;BME280;49182;50.788;7.318;2023-04-07T00:38:48;100670.91;;;8.23;97.07
43125;BME280;49182;50.788;7.318;2023-04-07T00:41:16;100660.50;;;8.22;96.90
43125;BME280;49182;50.788;7.318;2023-04-07T00:43:43;100659.06;;;8.18;97.24
43125;BME280;49182;50.788;7.318;2023-04-07T00:46:10;100662.75;;;8.15;97.46
43125;BME280;49182;50.788;7.318;2023-04-07T00:48:37;100655.22;;;8.10;97.31
43125;BME280;49182;50.788;7.318;2023-04-07T00:51:06;100657.50;;;8.15;97.52
43125;BME280;49182;50.788;7.318;2023-04-07T00:53:33;100653.91;;;8.16;97.43
43125;BME280;49182;50.788;7.318;2023-04-07T00:55:59;100651.19;;;8.18;97.63
43125;BME280;49182;50.788;7.318;2023-04-07T00:58:27;100650.22;;;8.19;97.76
43125;BME280;49182;50.788;7.318;2023-04-07T01:01:00;100653.44;;;8.22;97.29
43125;BME280;49182;50.788;7.318;2023-04-07T01:03:34;100633.13;;;8.13;97.39
43125;BME280;49182;50.788;7.318;2023-04-07T01:06:05;100615.78;;;7.99;97.22
43125;BME280;49182;50.788;7.318;2023-04-07T01:08:40;100640.06;;;8.25;97.54
43125;BME280;49182;50.788;7.318;2023-04-07T01:11:15;100644.50;;;8.25;97.93
43125;BME280;49182;50.788;7.318;2023-04-07T01:13:48;100584.59;;;7.84;97.88
43125;BME280;49182;50.788;7.318;2023-04-07T01:16:30;100618.31;;;8.12;97.66
43125;BME280;49182;50.788;7.318;2023-04-07T01:19:01;100618.53;;;8.09;97.76
43125;BME280;49182;50.788;7.318;2023-04-07T01:21:29;100634.47;;;8.19;97.93
43125;BME280;49182;50.788;7.318;2023-04-07T01:24:14;100634.09;;;8.23;97.74
43125;BME280;49182;50.788;7.318;2023-04-07T01:26:45;100636.25;;;8.18;98.36
43125;BME280;49182;50.788;7.318;2023-04-07T01:29:36;100627.50;;;8.18;98.73
43125;BME280;49182;50.788;7.318;2023-04-07T01:32:04;100634.56;;;8.17;98.93
43125;BME280;49182;50.788;7.318;2023-04-07T01:34:32;100629.31;;;8.17;98.44
43125;BME280;49182;50.788;7.318;2023-04-07T01:37:01;100624.16;;;8.16;98.63
43125;BME280;49182;50.788;7.318;2023-04-07T01:39:28;100620.81;;;8.13;98.70
43125;BME280;49182;50.788;7.318;2023-04-07T01:41:56;100604.81;;;8.05;98.78
43125;BME280;49182;50.788;7.318;2023-04-07T01:44:24;100594.66;;;8.01;98.65
43125;BME280;49182;50.788;7.318;2023-04-07T01:46:53;100623.81;;;8.20;98.40
43125;BME280;49182;50.788;7.318;2023-04-07T01:49:22;100625.63;;;8.20;98.64
43125;BME280;49182;50.788;7.318;2023-04-07T01:51:50;100614.47;;;8.16;98.55
43125;BME280;49182;50.788;7.318;2023-04-07T01:54:17;100629.66;;;8.24;98.93
43125;BME280;49182;50.788;7.318;2023-04-07T01:56:44;100624.31;;;8.25;98.26
43125;BME280;49182;50.788;7.318;2023-04-07T01:59:11;100625.13;;;8.26;98.46
43125;BME280;49182;50.788;7.318;2023-04-07T02:01:38;100626.81;;;8.27;98.33
43125;BME280;49182;50.788;7.318;2023-04-07T02:04:11;100604.69;;;8.18;98.15
43125;BME280;49182;50.788;7.318;2023-04-07T02:06:41;100617.25;;;8.26;98.50
43125;BME280;49182;50.788;7.318;2023-04-07T02:09:10;100622.19;;;8.30;98.45
43125;BME280;49182;50.788;7.318;2023-04-07T02:11:38;100620.38;;;8.31;97.98
43125;BME280;49182;50.788;7.318;2023-04-07T02:14:07;100618.59;;;8.31;98.30
43125;BME280;49182;50.788;7.318;2023-04-07T02:16:48;100558.78;;;8.00;98.00
43125;BME280;49182;50.788;7.318;2023-04-07T02:19:17;100621.09;;;8.33;98.35
43125;BME280;49182;50.788;7.318;2023-04-07T02:21:45;100621.22;;;8.31;98.37
43125;BME280;49182;50.788;7.318;2023-04-07T02:24:18;100618.47;;;8.33;98.17
43125;BME280;49182;50.788;7.318;2023-04-07T02:26:45;100592.59;;;8.16;98.21
43125;BME280;49182;50.788;7.318;2023-04-07T02:29:12;100622.75;;;8.34;97.96
43125;BME280;49182;50.788;7.318;2023-04-07T02:31:38;100621.41;;;8.28;98.48
43125;BME280;49182;50.788;7.318;2023-04-07T02:34:05;100623.84;;;8.31;98.42
43125;BME280;49182;50.788;7.318;2023-04-07T02:36:33;100595.13;;;8.17;98.66
43125;BME280;49182;50.788;7.318;2023-04-07T02:39:00;100632.44;;;8.33;98.48
43125;BME280;49182;50.788;7.318;2023-04-07T02:41:26;100621.81;;;8.35;98.14
43125;BME280;49182;50.788;7.318;2023-04-07T02:43:53;100625.16;;;8.37;98.21
43125;BME280;49182;50.788;7.318;2023-04-07T02:46:20;100627.78;;;8.37;98.45
43125;BME280;49182;50.788;7.318;2023-04-07T02:48:47;100630.44;;;8.37;98.35
43125;BME280;49182;50.788;7.318;2023-04-07T02:51:14;100630.31;;;8.38;98.49
43125;BME280;49182;50.788;7.318;2023-04-07T02:53:42;100631.97;;;8.39;98.33
43125;BME280;49182;50.788;7.318;2023-04-07T02:56:09;100625.75;;;8.40;98.21
43125;BME280;49182;50.788;7.318;2023-04-07T02:58:36;100631.00;;;8.40;98.55
43125;BME280;49182;50.788;7.318;2023-04-07T03:01:03;100615.97;;;8.31;98.24
43125;BME280;49182;50.788;7.318;2023-04-07T03:03:32;100615.97;;;8.31;97.91
43125;BME280;49182;50.788;7.318;2023-04-07T03:06:06;100608.66;;;8.35;98.03
43125;BME280;49182;50.788;7.318;2023-04-07T03:08:36;100624.81;;;8.41;98.05
43125;BME280;49182;50.788;7.318;2023-04-07T03:11:05;100621.94;;;8.44;98.10
43125;BME280;49182;50.788;7.318;2023-04-07T03:13:32;100617.16;;;8.38;97.86
43125;BME280;49182;50.788;7.318;2023-04-07T03:15:59;100623.72;;;8.44;97.91
43125;BME280;49182;50.788;7.318;2023-04-07T03:18:31;100621.09;;;8.44;98.31
43125;BME280;49182;50.788;7.318;2023-04-07T03:20:59;100611.53;;;8.43;98.51
43125;BME280;49182;50.788;7.318;2023-04-07T03:23:27;100617.84;;;8.40;97.90
43125;BME280;49182;50.788;7.318;2023-04-07T03:25:55;100577.66;;;8.16;98.05
43125;BME280;49182;50.788;7.318;2023-04-07T03:28:27;100624.44;;;8.46;98.31
43125;BME280;49182;50.788;7.318;2023-04-07T03:30:54;100627.78;;;8.48;98.11
43125;BME280;49182;50.788;7.318;2023-04-07T03:33:20;100624.31;;;8.47;98.25
43125;BME280;49182;50.788;7.318;2023-04-07T03:35:47;100588.66;;;8.21;98.24
43125;BME280;49182;50.788;7.318;2023-04-07T03:38:14;100594.91;;;8.31;98.37
43125;BME280;49182;50.788;7.318;2023-04-07T03:40:41;100620.00;;;8.46;98.40
43125;BME280;49182;50.788;7.318;2023-04-07T03:43:08;100611.16;;;8.36;98.33
43125;BME280;49182;50.788;7.318;2023-04-07T03:45:36;100601.97;;;8.31;98.69
43125;BME280;49182;50.788;7.318;2023-04-07T03:48:03;100624.44;;;8.46;98.83
43125;BME280;49182;50.788;7.318;2023-04-07T03:50:31;100626.25;;;8.45;98.43
43125;BME280;49182;50.788;7.318;2023-04-07T03:53:12;100617.53;;;8.45;98.30
43125;BME280;49182;50.788;7.318;2023-04-07T03:55:38;100620.84;;;8.47;98.71
43125;BME280;49182;50.788;7.318;2023-04-07T03:58:13;100616.78;;;8.43;98.70
43125;BME280;49182;50.788;7.318;2023-04-07T04:00:41;100627.91;;;8.46;98.66
43125;BME280;49182;50.788;7.318;2023-04-07T04:03:10;100630.69;;;8.45;99.01
43125;BME280;49182;50.788;7.318;2023-04-07T04:05:46;100626.72;;;8.50;99.18
43125;BME280;49182;50.788;7.318;2023-04-07T04:08:19;100633.66;;;8.51;99.33
43125;BME280;49182;50.788;7.318;2023-04-07T04:10:46;100636.28;;;8.51;99.14
43125;BME280;49182;50.788;7.318;2023-04-07T04:13:12;100633.53;;;8.53;99.58
43125;BME280;49182;50.788;7.318;2023-04-07T04:15:42;100624.56;;;8.44;99.60
43125;BME280;49182;50.788;7.318;2023-04-07T04:18:13;100637.25;;;8.50;99.65
43125;BME280;49182;50.788;7.318;2023-04-07T04:20:40;100634.94;;;8.46;100.00
43125;BME280;49182;50.788;7.318;2023-04-07T04:23:07;100636.03;;;8.43;100.00
43125;BME280;49182;50.788;7.318;2023-04-07T04:25:34;100622.44;;;8.38;100.00
43125;BME280;49182;50.788;7.318;2023-04-07T04:28:05;100640.47;;;8.43;100.00
43125;BME280;49182;50.788;7.318;2023-04-07T04:30:31;100636.78;;;8.45;100.00
43125;BME280;49182;50.788;7.318;2023-04-07T04:33:03;100641.66;;;8.50;100.00
43125;BME280;49182;50.788;7.318;2023-04-07T04:35:39;100634.63;;;8.50;100.00
43125;BME280;49182;50.788;7.318;2023-04-07T04:38:10;100648.34;;;8.54;100.00
43125;BME280;49182;50.788;7.318;2023-04-07T04:40:41;100648.97;;;8.58;100.00
43125;BME280;49182;50.788;7.318;2023-04-07T04:43:07;100647.97;;;8.59;100.00
43125;BME280;49182;50.788;7.318;2023-04-07T04:45:36;100601.13;;;8.30;100.00
43125;BME280;49182;50.788;7.318;2023-04-07T04:48:06;100624.31;;;8.47;100.00
43125;BME280;49182;50.788;7.318;2023-04-07T04:50:33;100645.25;;;8.60;100.00
43125;BME280;49182;50.788;7.318;2023-04-07T04:53:04;100655.28;;;8.66;100.00
43125;BME280;49182;50.788;7.318;2023-04-07T04:55:30;100638.75;;;8.64;100.00
43125;BME280;49182;50.788;7.318;2023-04-07T04:57:58;100653.25;;;8.70;100.00
43125;BME280;49182;50.788;7.318;2023-04-07T05:00:34;100660.19;;;8.71;100.00
43125;BME280;49182;50.788;7.318;2023-04-07T05:03:06;100665.69;;;8.68;100.00
43125;BME280;49182;50.788;7.318;2023-04-07T05:05:36;100664.75;;;8.69;100.00
43125;BME280;49182;50.788;7.318;2023-04-07T05:08:04;100660.19;;;8.60;100.00
43125;BME280;49182;50.788;7.318;2023-04-07T05:10:37;100661.88;;;8.61;100.00
43125;BME280;49182;50.788;7.318;2023-04-07T05:13:06;100669.19;;;8.57;100.00
43125;BME280;49182;50.788;7.318;2023-04-07T05:15:35;100674.19;;;8.60;100.00
43125;BME280;49182;50.788;7.318;2023-04-07T05:18:03;100659.13;;;8.51;100.00
43125;BME280;49182;50.788;7.318;2023-04-07T05:20:32;100677.66;;;8.61;100.00
43125;BME280;49182;50.788;7.318;2023-04-07T05:22:58;100650.16;;;8.42;100.00
43125;BME280;49182;50.788;7.318;2023-04-07T05:25:30;100637.13;;;8.41;100.00
43125;BME280;49182;50.788;7.318;2023-04-07T05:28:01;100682.34;;;8.68;100.00
43125;BME280;49182;50.788;7.318;2023-04-07T05:30:28;100682.69;;;8.75;100.00
43125;BME280;49182;50.788;7.318;2023-04-07T05:32:55;100612.97;;;8.36;100.00
43125;BME280;49182;50.788;7.318;2023-04-07T05:35:43;100677.19;;;8.67;100.00
43125;BME280;49182;50.788;7.318;2023-04-07T05:38:09;100684.84;;;8.70;100.00
43125;BME280;49182;50.788;7.318;2023-04-07T05:40:37;100678.84;;;8.68;100.00
43125;BME280;49182;50.788;7.318;2023-04-07T05:43:06;100692.03;;;8.68;100.00
43125;BME280;49182;50.788;7.318;2023-04-07T05:45:33;100685.31;;;8.75;100.00
43125;BME280;49182;50.788;7.318;2023-04-07T05:48:00;100693.91;;;8.77;100.00
43125;BME280;49182;50.788;7.318;2023-04-07T05:50:36;100690.47;;;8.76;100.00
43125;BME280;49182;50.788;7.318;2023-04-07T05:53:08;100688.91;;;8.74;100.00
43125;BME280;49182;50.788;7.318;2023-04-07T05:55:35;100688.66;;;8.77;100.00
43125;BME280;49182;50.788;7.318;2023-04-07T05:58:05;100675.50;;;8.55;100.00
43125;BME280;49182;50.788;7.318;2023-04-07T06:00:32;100682.34;;;8.68;100.00
43125;BME280;49182;50.788;7.318;2023-04-07T06:03:07;100704.09;;;8.81;100.00
43125;BME280;49182;50.788;7.318;2023-04-07T06:05:46;100706.50;;;8.73;100.00
43125;BME280;49182;50.788;7.318;2023-04-07T06:08:14;100703.38;;;8.79;100.00
43125;BME280;49182;50.788;7.318;2023-04-07T06:10:41;100713.91;;;8.79;100.00
43125;BME280;49182;50.788;7.318;2023-04-07T06:13:07;100714.63;;;8.81;100.00
43125;BME280;49182;50.788;7.318;2023-04-07T06:15:34;100715.34;;;8.83;100.00
43125;BME280;49182;50.788;7.318;2023-04-07T06:18:02;100720.75;;;8.82;100.00
43125;BME280;49182;50.788;7.318;2023-04-07T06:20:28;100708.28;;;8.84;100.00
43125;BME280;49182;50.788;7.318;2023-04-07T06:22:56;100705.91;;;8.81;99.86
43125;BME280;49182;50.788;7.318;2023-04-07T06:25:24;100725.75;;;8.85;100.00
43125;BME280;49182;50.788;7.318;2023-04-07T06:27:52;100724.81;;;8.75;100.00
43125;BME280;49182;50.788;7.318;2023-04-07T06:30:21;100722.66;;;8.80;100.00
43125;BME280;49182;50.788;7.318;2023-04-07T06:32:48;100700.38;;;8.73;100.00
43125;BME280;49182;50.788;7.318;2023-04-07T06:35:15;100722.88;;;8.88;99.87
43125;BME280;49182;50.788;7.318;2023-04-07T06:37:42;100675.41;;;8.45;100.00
43125;BME280;49182;50.788;7.318;2023-04-07T06:40:09;100720.97;;;8.79;100.00
43125;BME280;49182;50.788;7.318;2023-04-07T06:42:37;100727.91;;;8.80;100.00
43125;BME280;49182;50.788;7.318;2023-04-07T06:45:10;100713.19;;;8.66;100.00
43125;BME280;49182;50.788;7.318;2023-04-07T06:47:37;100737.38;;;8.82;100.00
43125;BME280;49182;50.788;7.318;2023-04-07T06:50:04;100728.38;;;8.74;100.00
43125;BME280;49182;50.788;7.318;2023-04-07T06:52:31;100740.34;;;8.78;99.91
43125;BME280;49182;50.788;7.318;2023-04-07T06:54:57;100738.91;;;8.85;100.00
43125;BME280;49182;50.788;7.318;2023-04-07T06:57:24;100745.59;;;8.89;99.71
43125;BME280;49182;50.788;7.318;2023-04-07T06:59:52;100748.97;;;8.80;99.60
43125;BME280;49182;50.788;7.318;2023-04-07T07:02:19;100733.66;;;8.63;99.87
43125;BME280;49182;50.788;7.318;2023-04-07T07:04:46;100752.44;;;8.69;100.00
43125;BME280;49182;50.788;7.318;2023-04-07T07:07:12;100755.66;;;8.73;100.00
43125;BME280;49182;50.788;7.318;2023-04-07T07:09:39;100757.09;;;8.77;100.00
43125;BME280;49182;50.788;7.318;2023-04-07T07:12:06;100754.25;;;8.80;100.00
43125;BME280;49182;50.788;7.318;2023-04-07T07:14:32;100765.59;;;8.80;100.00
43125;BME280;49182;50.788;7.318;2023-04-07T07:17:00;100765.13;;;8.86;99.92
43125;BME280;49182;50.788;7.318;2023-04-07T07:19:27;100753.03;;;8.84;99.62
43125;BME280;49182;50.788;7.318;2023-04-07T07:21:54;100770.28;;;8.99;99.30
43125;BME280;49182;50.788;7.318;2023-04-07T07:24:20;100751.50;;;8.92;99.17
43125;BME280;49182;50.788;7.318;2023-04-07T07:26:47;100739.53;;;8.88;98.89
43125;BME280;49182;50.788;7.318;2023-04-07T07:29:14;100776.00;;;9.04;99.14
43125;BME280;49182;50.788;7.318;2023-04-07T07:31:41;100776.50;;;9.09;98.50
43125;BME280;49182;50.788;7.318;2023-04-07T07:34:09;100779.84;;;9.00;98.89
43125;BME280;49182;50.788;7.318;2023-04-07T07:36:35;100776.59;;;8.97;98.70
43125;BME280;49182;50.788;7.318;2023-04-07T07:39:02;100739.28;;;8.80;98.36
43125;BME280;49182;50.788;7.318;2023-04-07T07:41:28;100776.59;;;9.08;98.17
43125;BME280;49182;50.788;7.318;2023-04-07T07:43:55;100783.56;;;9.09;98.21
43125;BME280;49182;50.788;7.318;2023-04-07T07:46:22;100759.13;;;8.96;98.34
43125;BME280;49182;50.788;7.318;2023-04-07T07:48:48;100785.69;;;9.15;98.57
43125;BME280;49182;50.788;7.318;2023-04-07T07:51:17;100782.84;;;9.18;97.93
43125;BME280;49182;50.788;7.318;2023-04-07T07:53:43;100790.72;;;9.29;97.18
43125;BME280;49182;50.788;7.318;2023-04-07T07:56:10;100747.16;;;9.03;97.30
43125;BME280;49182;50.788;7.318;2023-04-07T07:58:37;100791.19;;;9.34;97.26
43125;BME280;49182;50.788;7.318;2023-04-07T08:01:03;100795.25;;;9.38;96.24
43125;BME280;49182;50.788;7.318;2023-04-07T08:03:30;100784.66;;;9.06;96.86
43125;BME280;49182;50.788;7.318;2023-04-07T08:05:57;100806.66;;;9.27;96.76
43125;BME280;49182;50.788;7.318;2023-04-07T08:08:25;100807.03;;;9.12;97.20
43125;BME280;49182;50.788;7.318;2023-04-07T08:10:51;100814.09;;;9.11;96.94
43125;BME280;49182;50.788;7.318;2023-04-07T08:13:18;100820.56;;;9.18;96.70
43125;BME280;49182;50.788;7.318;2023-04-07T08:15:45;100809.53;;;9.24;97.28
43125;BME280;49182;50.788;7.318;2023-04-07T08:18:12;100821.63;;;9.27;96.94
43125;BME280;49182;50.788;7.318;2023-04-07T08:20:40;100808.09;;;9.31;96.92
43125;BME280;49182;50.788;7.318;2023-04-07T08:23:07;100776.38;;;9.11;96.52
43125;BME280;49182;50.788;7.318;2023-04-07T08:25:35;100812.41;;;9.44;96.16
43125;BME280;49182;50.788;7.318;2023-04-07T08:28:02;100798.63;;;9.29;96.86
43125;BME280;49182;50.788;7.318;2023-04-07T08:30:28;100791.44;;;9.20;96.03
43125;BME280;49182;50.788;7.318;2023-04-07T08:32:55;100825.28;;;9.58;95.20
43125;BME280;49182;50.788;7.318;2023-04-07T08:35:22;100823.75;;;9.55;96.33
43125;BME280;49182;50.788;7.318;2023-04-07T08:37:49;100823.59;;;9.57;95.44
43125;BME280;49182;50.788;7.318;2023-04-07T08:40:16;100842.28;;;9.65;94.80
43125;BME280;49182;50.788;7.318;2023-04-07T08:42:46;100825.91;;;9.61;95.11
43125;BME280;49182;50.788;7.318;2023-04-07T08:45:15;100840.91;;;9.50;94.84
43125;BME280;49182;50.788;7.318;2023-04-07T08:47:43;100839.69;;;9.54;94.60
43125;BME280;49182;50.788;7.318;2023-04-07T08:50:13;100816.34;;;9.49;95.06
43125;BME280;49182;50.788;7.318;2023-04-07T08:52:44;100791.81;;;9.38;95.05
43125;BME280;49182;50.788;7.318;2023-04-07T08:55:11;100838.22;;;9.72;94.87
43125;BME280;49182;50.788;7.318;2023-04-07T08:57:37;100847.19;;;9.69;93.47
43125;BME280;49182;50.788;7.318;2023-04-07T09:00:07;100837.63;;;9.68;93.97
43125;BME280;49182;50.788;7.318;2023-04-07T09:02:36;100850.78;;;9.80;93.77
43125;BME280;49182;50.788;7.318;2023-04-07T09:05:05;100840.84;;;9.72;94.38
43125;BME280;49182;50.788;7.318;2023-04-07T09:07:33;100835.19;;;9.77;93.73
43125;BME280;49182;50.788;7.318;2023-04-07T09:10:00;100844.56;;;9.81;93.34
43125;BME280;49182;50.788;7.318;2023-04-07T09:12:28;100857.63;;;9.71;92.78
43125;BME280;49182;50.788;7.318;2023-04-07T09:14:55;100791.88;;;9.47;92.66
43125;BME280;49182;50.788;7.318;2023-04-07T09:17:24;100856.53;;;9.85;91.97
43125;BME280;49182;50.788;7.318;2023-04-07T09:19:51;100861.69;;;9.86;91.99
43125;BME280;49182;50.788;7.318;2023-04-07T09:22:33;100847.88;;;9.83;92.58
43125;BME280;49182;50.788;7.318;2023-04-07T09:25:09;100868.44;;;9.68;91.79
43125;BME280;49182;50.788;7.318;2023-04-07T09:27:35;100860.59;;;9.78;92.56
43125;BME280;49182;50.788;7.318;2023-04-07T09:30:10;100846.84;;;9.74;92.85
43125;BME280;49182;50.788;7.318;2023-04-07T09:32:38;100868.16;;;9.71;92.15
43125;BME280;49182;50.788;7.318;2023-04-07T09:35:05;100864.56;;;9.72;91.91
43125;BME280;49182;50.788;7.318;2023-04-07T09:37:33;100866.34;;;9.83;92.00
43125;BME280;49182;50.788;7.318;2023-04-07T09:40:00;100871.50;;;9.84;92.16
43125;BME280;49182;50.788;7.318;2023-04-07T09:42:26;100867.69;;;9.66;93.38
43125;BME280;49182;50.788;7.318;2023-04-07T09:44:53;100868.41;;;9.79;93.16
43125;BME280;49182;50.788;7.318;2023-04-07T09:47:25;100866.81;;;9.88;92.35
43125;BME280;49182;50.788;7.318;2023-04-07T09:49:53;100865.72;;;9.90;92.53
43125;BME280;49182;50.788;7.318;2023-04-07T09:52:24;100872.78;;;10.01;92.75
43125;BME280;49182;50.788;7.318;2023-04-07T09:54:51;100847.34;;;10.00;92.83
43125;BME280;49182;50.788;7.318;2023-04-07T09:57:19;100856.78;;;10.13;90.95
43125;BME280;49182;50.788;7.318;2023-04-07T09:59:47;100861.66;;;9.97;91.61
43125;BME280;49182;50.788;7.318;2023-04-07T10:02:14;100881.03;;;10.07;91.08
43125;BME280;49182;50.788;7.318;2023-04-07T10:04:40;100868.81;;;10.18;91.47
43125;BME280;49182;50.788;7.318;2023-04-07T10:07:08;100874.50;;;10.34;90.94
43125;BME280;49182;50.788;7.318;2023-04-07T10:09:35;100874.56;;;10.43;91.04
43125;BME280;49182;50.788;7.318;2023-04-07T10:12:02;100857.78;;;10.44;90.86
43125;BME280;49182;50.788;7.318;2023-04-07T10:14:30;100857.53;;;10.47;90.98
43125;BME280;49182;50.788;7.318;2023-04-07T10:16:58;100879.88;;;10.64;90.68
43125;BME280;49182;50.788;7.318;2023-04-07T10:19:28;100877.44;;;10.72;90.43
43125;BME280;49182;50.788;7.318;2023-04-07T10:21:57;100860.75;;;10.72;89.97
43125;BME280;49182;50.788;7.318;2023-04-07T10:24:36;100884.91;;;10.88;88.94
43125;BME280;49182;50.788;7.318;2023-04-07T10:27:13;100871.81;;;10.86;88.67
43125;BME280;49182;50.788;7.318;2023-04-07T10:29:43;100886.47;;;10.90;88.92
43125;BME280;49182;50.788;7.318;2023-04-07T10:32:12;100888.63;;;11.06;89.05
43125;BME280;49182;50.788;7.318;2023-04-07T10:34:55;100874.44;;;11.07;87.38
43125;BME280;49182;50.788;7.318;2023-04-07T10:37:22;100889.06;;;11.11;87.70
43125;BME280;49182;50.788;7.318;2023-04-07T10:40:25;100886.88;;;11.16;87.48
43125;BME280;49182;50.788;7.318;2023-04-07T10:42:44;100897.28;;;11.39;87.58
43125;BME280;49182;50.788;7.318;2023-04-07T10:45:12;100898.97;;;11.49;87.41
43125;BME280;49182;50.788;7.318;2023-04-07T10:48:09;100893.47;;;11.62;87.22
43125;BME280;49182;50.788;7.318;2023-04-07T10:50:36;100881.75;;;11.55;86.48
43125;BME280;49182;50.788;7.318;2023-04-07T10:53:07;100879.50;;;11.50;85.56
43125;BME280;49182;50.788;7.318;2023-04-07T10:55:37;100886.72;;;11.48;85.36
43125;BME280;49182;50.788;7.318;2023-04-07T10:58:21;100882.69;;;11.44;85.36
43125;BME280;49182;50.788;7.318;2023-04-07T11:01:17;100906.78;;;11.51;85.95
43125;BME280;49182;50.788;7.318;2023-04-07T11:03:57;100903.84;;;11.44;85.63
43125;BME280;49182;50.788;7.318;2023-04-07T11:06:24;100906.13;;;11.28;87.31
43125;BME280;49182;50.788;7.318;2023-04-07T11:08:51;100902.56;;;11.08;85.47
43125;BME280;49182;50.788;7.318;2023-04-07T11:11:35;100899.69;;;11.21;86.11
43125;BME280;49182;50.788;7.318;2023-04-07T11:14:01;100912.56;;;11.05;87.23
43125;BME280;49182;50.788;7.318;2023-04-07T11:16:35;100894.75;;;11.07;87.32
43125;BME280;49182;50.788;7.318;2023-04-07T11:19:02;100919.13;;;11.10;86.79
43125;BME280;49182;50.788;7.318;2023-04-07T11:21:28;100912.06;;;11.20;86.42
43125;BME280;49182;50.788;7.318;2023-04-07T11:23:55;100905.06;;;11.10;86.58
43125;BME280;49182;50.788;7.318;2023-04-07T11:26:23;100917.84;;;11.05;85.33
43125;BME280;49182;50.788;7.318;2023-04-07T11:28:52;100915.97;;;10.95;85.00
43125;BME280;49182;50.788;7.318;2023-04-07T11:31:20;100921.03;;;11.08;85.40
43125;BME280;49182;50.788;7.318;2023-04-07T11:33:51;100925.16;;;11.01;86.69
43125;BME280;49182;50.788;7.318;2023-04-07T11:36:25;100929.16;;;10.75;86.74
43125;BME280;49182;50.788;7.318;2023-04-07T11:38:52;100927.03;;;10.89;86.94
43125;BME280;49182;50.788;7.318;2023-04-07T11:41:19;100929.63;;;11.01;86.81
43125;BME280;49182;50.788;7.318;2023-04-07T11:43:47;100930.84;;;10.97;87.56
43125;BME280;49182;50.788;7.318;2023-04-07T11:46:15;100933.69;;;11.05;87.42
43125;BME280;49182;50.788;7.318;2023-04-07T11:48:43;100938.38;;;11.01;87.41
43125;BME280;49182;50.788;7.318;2023-04-07T11:51:17;100937.22;;;10.94;87.73
43125;BME280;49182;50.788;7.318;2023-04-07T11:53:44;100945.22;;;11.04;87.88
43125;BME280;49182;50.788;7.318;2023-04-07T11:56:13;100900.09;;;10.75;86.62
43125;BME280;49182;50.788;7.318;2023-04-07T11:58:47;100948.28;;;10.88;88.72
43125;BME280;49182;50.788;7.318;2023-04-07T12:01:14;100952.81;;;10.97;88.32
43125;BME280;49182;50.788;7.318;2023-04-07T12:03:54;100950.34;;;11.05;87.74
43125;BME280;49182;50.788;7.318;2023-04-07T12:06:26;100952.88;;;11.07;88.09
43125;BME280;49182;50.788;7.318;2023-04-07T12:08:53;100952.94;;;10.95;87.46
43125;BME280;49182;50.788;7.318;2023-04-07T12:11:20;100952.16;;;10.84;88.74
43125;BME280;49182;50.788;7.318;2023-04-07T12:13:47;100953.19;;;10.92;88.42
43125;BME280;49182;50.788;7.318;2023-04-07T12:16:15;100964.53;;;10.83;87.13
43125;BME280;49182;50.788;7.318;2023-04-07T12:18:41;100956.41;;;10.75;87.95
43125;BME280;49182;50.788;7.318;2023-04-07T12:21:08;100966.91;;;10.86;87.95
43125;BME280;49182;50.788;7.318;2023-04-07T12:23:35;100953.53;;;10.78;87.67
43125;BME280;49182;50.788;7.318;2023-04-07T12:26:01;100927.34;;;10.54;88.15
43125;BME280;49182;50.788;7.318;2023-04-07T12:28:28;100965.75;;;10.79;88.49
43125;BME280;49182;50.788;7.318;2023-04-07T12:30:56;100947.06;;;10.71;89.43
43125;BME280;49182;50.788;7.318;2023-04-07T12:33:22;100973.19;;;10.85;88.95
43125;BME280;49182;50.788;7.318;2023-04-07T12:35:49;100968.75;;;10.86;88.94
43125;BME280;49182;50.788;7.318;2023-04-07T12:38:16;100942.00;;;10.79;88.25
43125;BME280;49182;50.788;7.318;2023-04-07T12:40:42;100972.84;;;11.00;88.18
43125;BME280;49182;50.788;7.318;2023-04-07T12:43:09;100973.13;;;10.97;87.85
43125;BME280;49182;50.788;7.318;2023-04-07T12:45:36;100969.69;;;10.85;88.58
43125;BME280;49182;50.788;7.318;2023-04-07T12:48:04;100966.03;;;10.97;87.83
43125;BME280;49182;50.788;7.318;2023-04-07T12:50:31;100965.00;;;11.09;88.64
43125;BME280;49182;50.788;7.318;2023-04-07T12:52:57;100973.25;;;11.16;88.04
43125;BME280;49182;50.788;7.318;2023-04-07T12:55:24;100984.84;;;11.04;88.99
43125;BME280;49182;50.788;7.318;2023-04-07T12:57:51;100953.97;;;10.83;86.69
43125;BME280;49182;50.788;7.318;2023-04-07T13:00:17;100982.47;;;11.01;87.19
43125;BME280;49182;50.788;7.318;2023-04-07T13:02:44;100964.81;;;11.01;87.72
43125;BME280;49182;50.788;7.318;2023-04-07T13:05:12;100983.75;;;11.27;87.75